sensor_id;sensor_type;location;lat;lon;timestamp;P1;durP1;ratioP1;P2;durP2;ratioP2
10491;SDS011;5293;51.464;-2.566;2022-09-17T00:00:47;2.80;;;2.50;;
10491;SDS011;5293;51.464;-2.566;2022-09-17T00:03:14;4.30;;;2.70;;
10491;SDS011;5293;51.464;-2.566;2022-09-17T00:05:40;4.27;;;2.83;;
10491;SDS011;5293;51.464;-2.566;2022-09-17T00:08:06;4.27;;;3.00;;
10491;SDS011;5293;51.464;-2.566;2022-09-17T00:10:38;6.17;;;3.23;;
10491;SDS011;5293;51.464;-2.566;2022-09-17T00:13:05;6.87;;;3.70;;
10491;SDS011;5293;51.464;-2.566;2022-09-17T00:15:31;5.10;;;3.20;;
10491;SDS011;5293;51.464;-2.566;2022-09-17T00:18:03;6.63;;;3.50;;
10491;SDS011;5293;51.464;-2.566;2022-09-17T00:20:28;6.17;;;3.10;;
10491;SDS011;5293;51.464;-2.566;2022-09-17T00:22:54;4.87;;;2.90;;
10491;SDS011;5293;51.464;-2.566;2022-09-17T00:25:20;4.50;;;3.07;;
10491;SDS011;5293;51.464;-2.566;2022-09-17T00:27:45;6.27;;;3.80;;
10491;SDS011;5293;51.464;-2.566;2022-09-17T00:30:11;8.17;;;3.80;;
10491;SDS011;5293;51.464;-2.566;2022-09-17T00:32:38;5.80;;;3.50;;
10491;SDS011;5293;51.464;-2.566;2022-09-17T00:35:04;5.20;;;3.57;;
10491;SDS011;5293;51.464;-2.566;2022-09-17T00:37:30;7.73;;;3.50;;
10491;SDS011;5293;51.464;-2.566;2022-09-17T00:39:56;3.70;;;2.80;;
10491;SDS011;5293;51.464;-2.566;2022-09-17T00:42:21;9.97;;;2.83;;
10491;SDS011;5293;51.464;-2.566;2022-09-17T00:44:49;4.37;;;2.53;;
10491;SDS011;5293;51.464;-2.566;2022-09-17T00:50:11;4.77;;;2.90;;
10491;SDS011;5293;51.464;-2.566;2022-09-17T00:52:42;4.30;;;2.70;;
10491;SDS011;5293;51.464;-2.566;2022-09-17T00:57:50;8.03;;;3.40;;
10491;SDS011;5293;51.464;-2.566;2022-09-17T01:00:19;4.40;;;2.87;;
10491;SDS011;5293;51.464;-2.566;2022-09-17T01:02:45;5.80;;;3.20;;
10491;SDS011;5293;51.464;-2.566;2022-09-17T01:05:11;5.43;;;2.93;;
10491;SDS011;5293;51.464;-2.566;2022-09-17T01:10:27;5.27;;;3.20;;
10491;SDS011;5293;51.464;-2.566;2022-09-17T01:19:07;4.50;;;3.00;;
10491;SDS011;5293;51.464;-2.566;2022-09-17T01:30:03;4.87;;;3.20;;
10491;SDS011;5293;51.464;-2.566;2022-09-17T01:32:57;5.93;;;3.40;;
10491;SDS011;5293;51.464;-2.566;2022-09-17T01:38:39;6.23;;;4.13;;
10491;SDS011;5293;51.464;-2.566;2022-09-17T01:41:28;6.27;;;3.50;;
10491;SDS011;5293;51.464;-2.566;2022-09-17T01:44:01;5.73;;;3.70;;
10491;SDS011;5293;51.464;-2.566;2022-09-17T01:46:42;4.80;;;3.57;;
10491;SDS011;5293;51.464;-2.566;2022-09-17T01:49:12;5.10;;;3.13;;
10491;SDS011;5293;51.464;-2.566;2022-09-17T01:51:41;5.13;;;3.67;;
10491;SDS011;5293;51.464;-2.566;2022-09-17T01:56:41;4.93;;;3.40;;
10491;SDS011;5293;51.464;-2.566;2022-09-17T02:02:11;6.90;;;3.90;;
10491;SDS011;5293;51.464;-2.566;2022-09-17T02:04:47;5.60;;;3.47;;
10491;SDS011;5293;51.464;-2.566;2022-09-17T02:07:21;5.80;;;3.73;;
10491;SDS011;5293;51.464;-2.566;2022-09-17T02:09:52;8.10;;;3.57;;
10491;SDS011;5293;51.464;-2.566;2022-09-17T02:12:44;2.93;;;2.63;;
10491;SDS011;5293;51.464;-2.566;2022-09-17T02:15:15;5.03;;;2.90;;
10491;SDS011;5293;51.464;-2.566;2022-09-17T02:20:57;5.03;;;3.13;;
10491;SDS011;5293;51.464;-2.566;2022-09-17T02:23:33;6.60;;;3.33;;
10491;SDS011;5293;51.464;-2.566;2022-09-17T02:26:11;5.30;;;3.23;;
10491;SDS011;5293;51.464;-2.566;2022-09-17T02:31:13;5.87;;;3.60;;
10491;SDS011;5293;51.464;-2.566;2022-09-17T02:33:40;8.17;;;3.63;;
10491;SDS011;5293;51.464;-2.566;2022-09-17T02:36:08;4.23;;;3.00;;
10491;SDS011;5293;51.464;-2.566;2022-09-17T02:38:34;11.97;;;3.07;;
10491;SDS011;5293;51.464;-2.566;2022-09-17T02:51:57;6.27;;;3.10;;
10491;SDS011;5293;51.464;-2.566;2022-09-17T02:54:50;8.40;;;3.17;;
10491;SDS011;5293;51.464;-2.566;2022-09-17T03:00:18;3.73;;;2.40;;
10491;SDS011;5293;51.464;-2.566;2022-09-17T03:02:47;6.80;;;2.50;;
10491;SDS011;5293;51.464;-2.566;2022-09-17T03:05:17;3.00;;;2.23;;
10491;SDS011;5293;51.464;-2.566;2022-09-17T03:07:45;3.87;;;2.53;;
10491;SDS011;5293;51.464;-2.566;2022-09-17T03:10:11;3.23;;;2.50;;
10491;SDS011;5293;51.464;-2.566;2022-09-17T03:12:37;4.90;;;2.80;;
10491;SDS011;5293;51.464;-2.566;2022-09-17T03:15:04;2.70;;;2.13;;
10491;SDS011;5293;51.464;-2.566;2022-09-17T03:17:30;4.97;;;2.20;;
10491;SDS011;5293;51.464;-2.566;2022-09-17T03:19:56;2.60;;;1.93;;
10491;SDS011;5293;51.464;-2.566;2022-09-17T03:22:22;3.43;;;2.10;;
10491;SDS011;5293;51.464;-2.566;2022-09-17T03:24:48;5.10;;;1.90;;
10491;SDS011;5293;51.464;-2.566;2022-09-17T03:27:13;3.87;;;2.20;;
10491;SDS011;5293;51.464;-2.566;2022-09-17T03:29:39;3.13;;;1.87;;
10491;SDS011;5293;51.464;-2.566;2022-09-17T03:32:05;3.10;;;2.00;;
10491;SDS011;5293;51.464;-2.566;2022-09-17T03:34:30;2.67;;;1.97;;
10491;SDS011;5293;51.464;-2.566;2022-09-17T03:36:56;1.87;;;1.73;;
10491;SDS011;5293;51.464;-2.566;2022-09-17T03:39:22;3.87;;;1.90;;
10491;SDS011;5293;51.464;-2.566;2022-09-17T03:41:48;2.83;;;1.70;;
10491;SDS011;5293;51.464;-2.566;2022-09-17T03:44:14;3.00;;;1.70;;
10491;SDS011;5293;51.464;-2.566;2022-09-17T03:46:40;1.70;;;1.60;;
10491;SDS011;5293;51.464;-2.566;2022-09-17T03:49:05;1.63;;;1.33;;
10491;SDS011;5293;51.464;-2.566;2022-09-17T03:51:32;1.73;;;1.50;;
10491;SDS011;5293;51.464;-2.566;2022-09-17T03:53:58;2.30;;;1.70;;
10491;SDS011;5293;51.464;-2.566;2022-09-17T03:56:24;6.13;;;1.80;;
10491;SDS011;5293;51.464;-2.566;2022-09-17T03:58:50;2.97;;;1.60;;
10491;SDS011;5293;51.464;-2.566;2022-09-17T04:01:20;3.13;;;2.13;;
10491;SDS011;5293;51.464;-2.566;2022-09-17T04:03:46;2.20;;;1.70;;
10491;SDS011;5293;51.464;-2.566;2022-09-17T04:06:11;1.87;;;1.40;;
10491;SDS011;5293;51.464;-2.566;2022-09-17T04:08:37;4.30;;;1.50;;
10491;SDS011;5293;51.464;-2.566;2022-09-17T04:11:03;1.73;;;1.63;;
10491;SDS011;5293;51.464;-2.566;2022-09-17T04:13:28;3.00;;;1.60;;
10491;SDS011;5293;51.464;-2.566;2022-09-17T04:15:54;3.63;;;1.90;;
10491;SDS011;5293;51.464;-2.566;2022-09-17T04:18:20;3.43;;;1.60;;
10491;SDS011;5293;51.464;-2.566;2022-09-17T04:20:45;2.33;;;1.53;;
10491;SDS011;5293;51.464;-2.566;2022-09-17T04:23:11;3.23;;;1.70;;
10491;SDS011;5293;51.464;-2.566;2022-09-17T04:25:37;4.10;;;2.40;;
10491;SDS011;5293;51.464;-2.566;2022-09-17T04:28:03;3.43;;;1.80;;
10491;SDS011;5293;51.464;-2.566;2022-09-17T04:30:28;2.00;;;1.90;;
10491;SDS011;5293;51.464;-2.566;2022-09-17T04:32:54;2.13;;;1.80;;
10491;SDS011;5293;51.464;-2.566;2022-09-17T04:35:20;1.90;;;1.57;;
10491;SDS011;5293;51.464;-2.566;2022-09-17T04:37:55;4.43;;;1.80;;
10491;SDS011;5293;51.464;-2.566;2022-09-17T04:40:21;2.00;;;1.70;;
10491;SDS011;5293;51.464;-2.566;2022-09-17T04:42:51;3.50;;;1.90;;
10491;SDS011;5293;51.464;-2.566;2022-09-17T04:45:17;3.00;;;1.60;;
10491;SDS011;5293;51.464;-2.566;2022-09-17T04:47:43;2.10;;;1.90;;
10491;SDS011;5293;51.464;-2.566;2022-09-17T04:50:09;3.43;;;2.00;;
10491;SDS011;5293;51.464;-2.566;2022-09-17T04:52:35;2.40;;;1.83;;
10491;SDS011;5293;51.464;-2.566;2022-09-17T04:55:00;2.07;;;1.67;;
10491;SDS011;5293;51.464;-2.566;2022-09-17T04:57:26;2.90;;;1.73;;
10491;SDS011;5293;51.464;-2.566;2022-09-17T04:59:52;2.23;;;1.80;;
10491;SDS011;5293;51.464;-2.566;2022-09-17T05:02:18;3.80;;;1.50;;
10491;SDS011;5293;51.464;-2.566;2022-09-17T05:04:43;7.40;;;1.40;;
10491;SDS011;5293;51.464;-2.566;2022-09-17T05:07:09;1.77;;;1.60;;
10491;SDS011;5293;51.464;-2.566;2022-09-17T05:09:34;2.07;;;1.77;;
10491;SDS011;5293;51.464;-2.566;2022-09-17T05:12:00;3.70;;;1.97;;
10491;SDS011;5293;51.464;-2.566;2022-09-17T05:14:26;3.60;;;1.60;;
10491;SDS011;5293;51.464;-2.566;2022-09-17T05:16:52;2.90;;;1.70;;
10491;SDS011;5293;51.464;-2.566;2022-09-17T05:19:17;2.33;;;1.73;;
10491;SDS011;5293;51.464;-2.566;2022-09-17T05:21:43;1.63;;;1.30;;
10491;SDS011;5293;51.464;-2.566;2022-09-17T05:24:08;1.23;;;1.23;;
10491;SDS011;5293;51.464;-2.566;2022-09-17T05:26:34;3.07;;;1.87;;
10491;SDS011;5293;51.464;-2.566;2022-09-17T05:29:00;2.67;;;1.70;;
10491;SDS011;5293;51.464;-2.566;2022-09-17T05:31:25;1.53;;;1.30;;
10491;SDS011;5293;51.464;-2.566;2022-09-17T05:33:51;1.40;;;1.30;;
10491;SDS011;5293;51.464;-2.566;2022-09-17T05:36:16;2.00;;;1.37;;
10491;SDS011;5293;51.464;-2.566;2022-09-17T05:38:42;4.27;;;1.60;;
10491;SDS011;5293;51.464;-2.566;2022-09-17T05:41:08;2.70;;;1.60;;
10491;SDS011;5293;51.464;-2.566;2022-09-17T05:43:33;1.70;;;1.60;;
10491;SDS011;5293;51.464;-2.566;2022-09-17T05:46:00;2.47;;;1.53;;
10491;SDS011;5293;51.464;-2.566;2022-09-17T05:48:29;2.43;;;1.50;;
10491;SDS011;5293;51.464;-2.566;2022-09-17T05:50:55;3.23;;;1.60;;
10491;SDS011;5293;51.464;-2.566;2022-09-17T05:53:21;2.23;;;1.70;;
10491;SDS011;5293;51.464;-2.566;2022-09-17T05:55:47;1.87;;;1.73;;
10491;SDS011;5293;51.464;-2.566;2022-09-17T05:58:14;2.60;;;1.73;;
10491;SDS011;5293;51.464;-2.566;2022-09-17T06:00:42;3.90;;;1.60;;
10491;SDS011;5293;51.464;-2.566;2022-09-17T06:03:13;2.67;;;1.70;;
10491;SDS011;5293;51.464;-2.566;2022-09-17T06:05:40;1.87;;;1.40;;
10491;SDS011;5293;51.464;-2.566;2022-09-17T06:08:06;1.73;;;1.50;;
10491;SDS011;5293;51.464;-2.566;2022-09-17T06:10:36;4.20;;;1.50;;
10491;SDS011;5293;51.464;-2.566;2022-09-17T06:13:05;6.67;;;1.70;;
10491;SDS011;5293;51.464;-2.566;2022-09-17T06:15:31;3.77;;;1.57;;
10491;SDS011;5293;51.464;-2.566;2022-09-17T06:17:56;2.03;;;1.10;;
10491;SDS011;5293;51.464;-2.566;2022-09-17T06:20:22;2.17;;;1.90;;
10491;SDS011;5293;51.464;-2.566;2022-09-17T06:22:47;1.60;;;1.50;;
10491;SDS011;5293;51.464;-2.566;2022-09-17T06:25:13;1.50;;;1.40;;
10491;SDS011;5293;51.464;-2.566;2022-09-17T06:27:39;3.60;;;1.30;;
10491;SDS011;5293;51.464;-2.566;2022-09-17T06:30:05;1.43;;;1.30;;
10491;SDS011;5293;51.464;-2.566;2022-09-17T06:32:31;2.67;;;1.30;;
10491;SDS011;5293;51.464;-2.566;2022-09-17T06:34:57;2.40;;;1.13;;
10491;SDS011;5293;51.464;-2.566;2022-09-17T06:37:27;1.90;;;1.53;;
10491;SDS011;5293;51.464;-2.566;2022-09-17T06:39:53;2.37;;;1.13;;
10491;SDS011;5293;51.464;-2.566;2022-09-17T06:42:19;5.07;;;1.30;;
10491;SDS011;5293;51.464;-2.566;2022-09-17T06:44:45;1.53;;;1.30;;
10491;SDS011;5293;51.464;-2.566;2022-09-17T06:47:10;4.40;;;1.50;;
10491;SDS011;5293;51.464;-2.566;2022-09-17T06:49:36;2.37;;;1.50;;
10491;SDS011;5293;51.464;-2.566;2022-09-17T06:52:02;1.73;;;1.63;;
10491;SDS011;5293;51.464;-2.566;2022-09-17T06:54:28;3.90;;;2.07;;
10491;SDS011;5293;51.464;-2.566;2022-09-17T06:56:54;2.97;;;1.37;;
10491;SDS011;5293;51.464;-2.566;2022-09-17T06:59:19;4.40;;;2.03;;
10491;SDS011;5293;51.464;-2.566;2022-09-17T07:01:46;1.60;;;1.47;;
10491;SDS011;5293;51.464;-2.566;2022-09-17T07:04:12;1.90;;;1.60;;
10491;SDS011;5293;51.464;-2.566;2022-09-17T07:06:38;1.70;;;1.43;;
10491;SDS011;5293;51.464;-2.566;2022-09-17T07:09:03;3.20;;;1.57;;
10491;SDS011;5293;51.464;-2.566;2022-09-17T07:11:31;2.13;;;1.50;;
10491;SDS011;5293;51.464;-2.566;2022-09-17T07:13:57;1.70;;;1.30;;
10491;SDS011;5293;51.464;-2.566;2022-09-17T07:16:23;2.27;;;1.53;;
10491;SDS011;5293;51.464;-2.566;2022-09-17T07:18:50;5.17;;;1.43;;
10491;SDS011;5293;51.464;-2.566;2022-09-17T07:21:16;1.40;;;1.30;;
10491;SDS011;5293;51.464;-2.566;2022-09-17T07:23:42;5.73;;;1.43;;
10491;SDS011;5293;51.464;-2.566;2022-09-17T07:26:13;2.10;;;1.47;;
10491;SDS011;5293;51.464;-2.566;2022-09-17T07:28:40;4.10;;;1.77;;
10491;SDS011;5293;51.464;-2.566;2022-09-17T07:31:06;1.47;;;1.37;;
10491;SDS011;5293;51.464;-2.566;2022-09-17T07:33:33;2.40;;;1.87;;
10491;SDS011;5293;51.464;-2.566;2022-09-17T07:36:04;3.07;;;1.70;;
10491;SDS011;5293;51.464;-2.566;2022-09-17T07:38:35;6.27;;;1.73;;
10491;SDS011;5293;51.464;-2.566;2022-09-17T07:41:01;2.40;;;2.00;;
10491;SDS011;5293;51.464;-2.566;2022-09-17T07:43:37;2.70;;;1.80;;
10491;SDS011;5293;51.464;-2.566;2022-09-17T07:46:03;5.33;;;2.10;;
10491;SDS011;5293;51.464;-2.566;2022-09-17T07:48:30;3.87;;;1.73;;
10491;SDS011;5293;51.464;-2.566;2022-09-17T07:50:56;2.40;;;1.77;;
10491;SDS011;5293;51.464;-2.566;2022-09-17T07:53:23;5.17;;;1.87;;
10491;SDS011;5293;51.464;-2.566;2022-09-17T07:55:52;4.43;;;1.80;;
10491;SDS011;5293;51.464;-2.566;2022-09-17T07:58:23;3.50;;;1.70;;
10491;SDS011;5293;51.464;-2.566;2022-09-17T08:00:52;2.67;;;1.83;;
10491;SDS011;5293;51.464;-2.566;2022-09-17T08:03:34;2.77;;;1.80;;
10491;SDS011;5293;51.464;-2.566;2022-09-17T08:06:07;4.80;;;2.07;;
10491;SDS011;5293;51.464;-2.566;2022-09-17T08:08:37;3.77;;;1.63;;
10491;SDS011;5293;51.464;-2.566;2022-09-17T08:11:13;4.90;;;1.70;;
10491;SDS011;5293;51.464;-2.566;2022-09-17T08:13:41;2.43;;;1.80;;
10491;SDS011;5293;51.464;-2.566;2022-09-17T08:16:09;4.53;;;1.60;;
10491;SDS011;5293;51.464;-2.566;2022-09-17T08:18:39;2.60;;;2.10;;
10491;SDS011;5293;51.464;-2.566;2022-09-17T08:21:06;6.13;;;2.00;;
10491;SDS011;5293;51.464;-2.566;2022-09-17T08:23:34;3.10;;;2.03;;
10491;SDS011;5293;51.464;-2.566;2022-09-17T08:26:01;3.20;;;1.60;;
10491;SDS011;5293;51.464;-2.566;2022-09-17T08:28:28;3.47;;;1.60;;
10491;SDS011;5293;51.464;-2.566;2022-09-17T08:30:59;2.37;;;1.63;;
10491;SDS011;5293;51.464;-2.566;2022-09-17T08:33:28;4.97;;;1.80;;
10491;SDS011;5293;51.464;-2.566;2022-09-17T08:35:56;4.03;;;1.60;;
10491;SDS011;5293;51.464;-2.566;2022-09-17T08:38:28;2.80;;;1.10;;
10491;SDS011;5293;51.464;-2.566;2022-09-17T08:46:51;4.53;;;1.00;;
10491;SDS011;5293;51.464;-2.566;2022-09-17T08:51:58;2.37;;;0.90;;
10491;SDS011;5293;51.464;-2.566;2022-09-17T08:54:39;1.50;;;0.77;;
10491;SDS011;5293;51.464;-2.566;2022-09-17T09:00:06;1.63;;;0.90;;
10491;SDS011;5293;51.464;-2.566;2022-09-17T09:05:30;3.47;;;1.30;;
10491;SDS011;5293;51.464;-2.566;2022-09-17T09:10:51;4.30;;;0.87;;
10491;SDS011;5293;51.464;-2.566;2022-09-17T09:13:20;6.37;;;1.20;;
10491;SDS011;5293;51.464;-2.566;2022-09-17T09:15:57;2.93;;;1.00;;
10491;SDS011;5293;51.464;-2.566;2022-09-17T09:18:28;1.77;;;0.70;;
10491;SDS011;5293;51.464;-2.566;2022-09-17T09:23:39;3.83;;;1.10;;
10491;SDS011;5293;51.464;-2.566;2022-09-17T09:27:13;5.37;;;1.27;;
10491;SDS011;5293;51.464;-2.566;2022-09-17T09:35:17;1.37;;;0.80;;
10491;SDS011;5293;51.464;-2.566;2022-09-17T09:59:17;3.10;;;1.37;;
10491;SDS011;5293;51.464;-2.566;2022-09-17T10:01:43;3.20;;;0.97;;
10491;SDS011;5293;51.464;-2.566;2022-09-17T10:04:19;3.90;;;1.00;;
10491;SDS011;5293;51.464;-2.566;2022-09-17T10:06:54;4.20;;;1.10;;
10491;SDS011;5293;51.464;-2.566;2022-09-17T10:09:27;2.70;;;0.97;;
10491;SDS011;5293;51.464;-2.566;2022-09-17T10:11:58;1.87;;;1.03;;
10491;SDS011;5293;51.464;-2.566;2022-09-17T10:14:25;2.80;;;0.90;;
10491;SDS011;5293;51.464;-2.566;2022-09-17T10:22:38;6.40;;;0.97;;
10491;SDS011;5293;51.464;-2.566;2022-09-17T10:25:17;3.47;;;1.10;;
10491;SDS011;5293;51.464;-2.566;2022-09-17T10:27:52;4.17;;;1.47;;
10491;SDS011;5293;51.464;-2.566;2022-09-17T10:30:19;3.17;;;1.10;;
10491;SDS011;5293;51.464;-2.566;2022-09-17T10:35:36;4.80;;;0.93;;
10491;SDS011;5293;51.464;-2.566;2022-09-17T10:38:01;2.33;;;0.90;;
10491;SDS011;5293;51.464;-2.566;2022-09-17T10:40:28;3.60;;;1.07;;
10491;SDS011;5293;51.464;-2.566;2022-09-17T10:43:17;2.87;;;0.97;;
10491;SDS011;5293;51.464;-2.566;2022-09-17T10:45:43;3.07;;;1.30;;
10491;SDS011;5293;51.464;-2.566;2022-09-17T10:48:19;4.17;;;0.83;;
10491;SDS011;5293;51.464;-2.566;2022-09-17T10:50:47;2.60;;;0.80;;
10491;SDS011;5293;51.464;-2.566;2022-09-17T10:53:20;2.80;;;1.03;;
10491;SDS011;5293;51.464;-2.566;2022-09-17T10:56:00;1.70;;;0.60;;
10491;SDS011;5293;51.464;-2.566;2022-09-17T11:01:52;4.77;;;0.67;;
10491;SDS011;5293;51.464;-2.566;2022-09-17T11:07:58;1.63;;;0.63;;
10491;SDS011;5293;51.464;-2.566;2022-09-17T11:10:59;2.93;;;1.33;;
10491;SDS011;5293;51.464;-2.566;2022-09-17T11:19:26;1.13;;;0.60;;
10491;SDS011;5293;51.464;-2.566;2022-09-17T11:27:25;1.27;;;0.77;;
10491;SDS011;5293;51.464;-2.566;2022-09-17T11:30:15;3.80;;;1.07;;
10491;SDS011;5293;51.464;-2.566;2022-09-17T11:35:37;1.00;;;0.63;;
10491;SDS011;5293;51.464;-2.566;2022-09-17T11:40:57;2.50;;;0.80;;
10491;SDS011;5293;51.464;-2.566;2022-09-17T11:43:46;4.50;;;0.93;;
10491;SDS011;5293;51.464;-2.566;2022-09-17T11:46:26;2.50;;;0.70;;
10491;SDS011;5293;51.464;-2.566;2022-09-17T11:48:58;5.00;;;0.70;;
10491;SDS011;5293;51.464;-2.566;2022-09-17T11:52:01;2.23;;;0.70;;
10491;SDS011;5293;51.464;-2.566;2022-09-17T11:54:53;1.47;;;0.60;;
10491;SDS011;5293;51.464;-2.566;2022-09-17T11:57:34;1.83;;;0.80;;
10491;SDS011;5293;51.464;-2.566;2022-09-17T12:00:04;1.30;;;0.83;;
10491;SDS011;5293;51.464;-2.566;2022-09-17T12:08:17;2.33;;;1.10;;
10491;SDS011;5293;51.464;-2.566;2022-09-17T12:11:06;1.70;;;0.83;;
10491;SDS011;5293;51.464;-2.566;2022-09-17T12:13:48;1.70;;;1.10;;
10491;SDS011;5293;51.464;-2.566;2022-09-17T12:16:32;2.13;;;0.80;;
10491;SDS011;5293;51.464;-2.566;2022-09-17T12:22:13;2.27;;;1.07;;
10491;SDS011;5293;51.464;-2.566;2022-09-17T12:24:45;1.13;;;0.70;;
10491;SDS011;5293;51.464;-2.566;2022-09-17T12:30:09;2.10;;;0.93;;
10491;SDS011;5293;51.464;-2.566;2022-09-17T12:35:23;1.90;;;0.90;;
10491;SDS011;5293;51.464;-2.566;2022-09-17T12:52:29;3.07;;;0.87;;
10491;SDS011;5293;51.464;-2.566;2022-09-17T13:00:11;1.87;;;1.23;;
10491;SDS011;5293;51.464;-2.566;2022-09-17T13:02:40;4.87;;;1.53;;
10491;SDS011;5293;51.464;-2.566;2022-09-17T13:13:19;2.47;;;1.13;;
10491;SDS011;5293;51.464;-2.566;2022-09-17T13:16:05;2.20;;;0.50;;
10491;SDS011;5293;51.464;-2.566;2022-09-17T13:18:41;3.43;;;1.00;;
10491;SDS011;5293;51.464;-2.566;2022-09-17T13:21:46;1.43;;;0.80;;
10491;SDS011;5293;51.464;-2.566;2022-09-17T13:24:14;4.27;;;1.33;;
10491;SDS011;5293;51.464;-2.566;2022-09-17T13:26:46;1.30;;;0.70;;
10491;SDS011;5293;51.464;-2.566;2022-09-17T13:29:55;4.47;;;0.97;;
10491;SDS011;5293;51.464;-2.566;2022-09-17T13:40:22;2.40;;;0.77;;
10491;SDS011;5293;51.464;-2.566;2022-09-17T13:42:55;2.23;;;0.53;;
10491;SDS011;5293;51.464;-2.566;2022-09-17T13:45:23;2.63;;;1.30;;
10491;SDS011;5293;51.464;-2.566;2022-09-17T13:50:41;1.93;;;0.80;;
10491;SDS011;5293;51.464;-2.566;2022-09-17T13:55:49;3.73;;;1.20;;
10491;SDS011;5293;51.464;-2.566;2022-09-17T14:00:50;5.70;;;1.27;;
10491;SDS011;5293;51.464;-2.566;2022-09-17T14:05:55;5.60;;;1.10;;
10491;SDS011;5293;51.464;-2.566;2022-09-17T14:21:30;2.33;;;1.00;;
10491;SDS011;5293;51.464;-2.566;2022-09-17T14:24:02;4.37;;;1.07;;
10491;SDS011;5293;51.464;-2.566;2022-09-17T14:32:12;2.53;;;0.87;;
10491;SDS011;5293;51.464;-2.566;2022-09-17T14:34:46;4.33;;;0.90;;
10491;SDS011;5293;51.464;-2.566;2022-09-17T14:37:14;6.43;;;1.27;;
10491;SDS011;5293;51.464;-2.566;2022-09-17T14:39:44;0.80;;;0.63;;
10491;SDS011;5293;51.464;-2.566;2022-09-17T14:42:15;1.97;;;1.20;;
10491;SDS011;5293;51.464;-2.566;2022-09-17T14:44:53;3.23;;;1.30;;
10491;SDS011;5293;51.464;-2.566;2022-09-17T14:47:23;3.53;;;1.10;;
10491;SDS011;5293;51.464;-2.566;2022-09-17T14:49:50;2.00;;;1.00;;
10491;SDS011;5293;51.464;-2.566;2022-09-17T14:52:29;1.13;;;0.70;;
10491;SDS011;5293;51.464;-2.566;2022-09-17T14:57:57;1.50;;;0.87;;
10491;SDS011;5293;51.464;-2.566;2022-09-17T15:00:35;2.37;;;0.87;;
10491;SDS011;5293;51.464;-2.566;2022-09-17T15:03:02;3.17;;;0.77;;
10491;SDS011;5293;51.464;-2.566;2022-09-17T15:05:35;2.50;;;0.80;;
10491;SDS011;5293;51.464;-2.566;2022-09-17T15:10:35;2.53;;;0.70;;
10491;SDS011;5293;51.464;-2.566;2022-09-17T15:13:15;1.90;;;1.00;;
10491;SDS011;5293;51.464;-2.566;2022-09-17T15:16:02;1.57;;;0.87;;
10491;SDS011;5293;51.464;-2.566;2022-09-17T15:18:33;2.60;;;0.90;;
10491;SDS011;5293;51.464;-2.566;2022-09-17T15:21:03;2.57;;;0.70;;
10491;SDS011;5293;51.464;-2.566;2022-09-17T15:23:34;2.97;;;1.10;;
10491;SDS011;5293;51.464;-2.566;2022-09-17T15:26:00;2.80;;;1.10;;
10491;SDS011;5293;51.464;-2.566;2022-09-17T15:28:33;1.73;;;0.80;;
10491;SDS011;5293;51.464;-2.566;2022-09-17T15:31:12;3.53;;;0.87;;
10491;SDS011;5293;51.464;-2.566;2022-09-17T15:33:41;4.70;;;0.80;;
10491;SDS011;5293;51.464;-2.566;2022-09-17T15:38:45;2.07;;;1.00;;
10491;SDS011;5293;51.464;-2.566;2022-09-17T15:44:04;2.93;;;1.10;;
10491;SDS011;5293;51.464;-2.566;2022-09-17T15:46:45;1.30;;;0.70;;
10491;SDS011;5293;51.464;-2.566;2022-09-17T15:49:27;4.30;;;1.03;;
10491;SDS011;5293;51.464;-2.566;2022-09-17T15:52:17;3.00;;;0.83;;
10491;SDS011;5293;51.464;-2.566;2022-09-17T15:54:55;1.03;;;0.93;;
10491;SDS011;5293;51.464;-2.566;2022-09-17T15:57:22;1.10;;;0.93;;
10491;SDS011;5293;51.464;-2.566;2022-09-17T15:59:49;2.13;;;0.73;;
10491;SDS011;5293;51.464;-2.566;2022-09-17T16:02:25;1.47;;;0.70;;
10491;SDS011;5293;51.464;-2.566;2022-09-17T16:07:43;0.87;;;0.67;;
10491;SDS011;5293;51.464;-2.566;2022-09-17T16:10:12;1.67;;;1.03;;
10491;SDS011;5293;51.464;-2.566;2022-09-17T16:12:39;1.20;;;0.80;;
10491;SDS011;5293;51.464;-2.566;2022-09-17T16:15:05;1.37;;;0.73;;
10491;SDS011;5293;51.464;-2.566;2022-09-17T16:17:41;0.77;;;0.47;;
10491;SDS011;5293;51.464;-2.566;2022-09-17T16:22:42;1.13;;;0.50;;
10491;SDS011;5293;51.464;-2.566;2022-09-17T16:25:09;2.20;;;0.80;;
10491;SDS011;5293;51.464;-2.566;2022-09-17T16:30:16;1.73;;;0.60;;
10491;SDS011;5293;51.464;-2.566;2022-09-17T16:32:44;0.73;;;0.50;;
10491;SDS011;5293;51.464;-2.566;2022-09-17T16:35:10;2.23;;;0.97;;
10491;SDS011;5293;51.464;-2.566;2022-09-17T16:37:37;2.00;;;0.90;;
10491;SDS011;5293;51.464;-2.566;2022-09-17T16:40:03;3.97;;;0.90;;
10491;SDS011;5293;51.464;-2.566;2022-09-17T16:42:30;3.17;;;1.00;;
10491;SDS011;5293;51.464;-2.566;2022-09-17T16:44:56;1.40;;;0.60;;
10491;SDS011;5293;51.464;-2.566;2022-09-17T16:47:22;1.27;;;0.67;;
10491;SDS011;5293;51.464;-2.566;2022-09-17T16:49:48;1.43;;;0.67;;
10491;SDS011;5293;51.464;-2.566;2022-09-17T16:52:13;2.17;;;0.70;;
10491;SDS011;5293;51.464;-2.566;2022-09-17T16:54:39;1.17;;;0.80;;
10491;SDS011;5293;51.464;-2.566;2022-09-17T16:57:05;1.97;;;1.10;;
10491;SDS011;5293;51.464;-2.566;2022-09-17T16:59:30;2.00;;;0.90;;
10491;SDS011;5293;51.464;-2.566;2022-09-17T17:01:56;2.07;;;0.80;;
10491;SDS011;5293;51.464;-2.566;2022-09-17T17:04:22;1.53;;;0.90;;
10491;SDS011;5293;51.464;-2.566;2022-09-17T17:06:48;1.70;;;1.33;;
10491;SDS011;5293;51.464;-2.566;2022-09-17T17:09:14;1.57;;;0.90;;
10491;SDS011;5293;51.464;-2.566;2022-09-17T17:11:39;4.33;;;1.30;;
10491;SDS011;5293;51.464;-2.566;2022-09-17T17:14:05;1.47;;;0.80;;
10491;SDS011;5293;51.464;-2.566;2022-09-17T17:16:31;4.00;;;1.37;;
10491;SDS011;5293;51.464;-2.566;2022-09-17T17:18:57;4.57;;;1.60;;
10491;SDS011;5293;51.464;-2.566;2022-09-17T17:21:22;1.33;;;0.83;;
10491;SDS011;5293;51.464;-2.566;2022-09-17T17:23:48;2.00;;;1.03;;
10491;SDS011;5293;51.464;-2.566;2022-09-17T17:26:14;3.53;;;1.30;;
10491;SDS011;5293;51.464;-2.566;2022-09-17T17:28:40;2.37;;;1.10;;
10491;SDS011;5293;51.464;-2.566;2022-09-17T17:31:06;3.10;;;1.47;;
10491;SDS011;5293;51.464;-2.566;2022-09-17T17:33:33;3.80;;;0.90;;
10491;SDS011;5293;51.464;-2.566;2022-09-17T17:36:00;3.10;;;1.17;;
10491;SDS011;5293;51.464;-2.566;2022-09-17T17:38:26;1.50;;;0.77;;
10491;SDS011;5293;51.464;-2.566;2022-09-17T17:41:05;2.10;;;1.33;;
10491;SDS011;5293;51.464;-2.566;2022-09-17T17:43:33;1.67;;;1.07;;
10491;SDS011;5293;51.464;-2.566;2022-09-17T17:45:59;5.40;;;1.43;;
10491;SDS011;5293;51.464;-2.566;2022-09-17T17:48:25;2.10;;;1.10;;
10491;SDS011;5293;51.464;-2.566;2022-09-17T17:50:51;3.93;;;1.20;;
10491;SDS011;5293;51.464;-2.566;2022-09-17T17:53:17;2.57;;;1.33;;
10491;SDS011;5293;51.464;-2.566;2022-09-17T17:55:43;2.27;;;1.13;;
10491;SDS011;5293;51.464;-2.566;2022-09-17T17:58:22;2.20;;;1.20;;
10491;SDS011;5293;51.464;-2.566;2022-09-17T18:00:48;3.47;;;1.40;;
10491;SDS011;5293;51.464;-2.566;2022-09-17T18:03:13;2.97;;;1.50;;
10491;SDS011;5293;51.464;-2.566;2022-09-17T18:05:39;3.03;;;2.00;;
10491;SDS011;5293;51.464;-2.566;2022-09-17T18:08:05;4.77;;;1.83;;
10491;SDS011;5293;51.464;-2.566;2022-09-17T18:10:30;3.00;;;1.70;;
10491;SDS011;5293;51.464;-2.566;2022-09-17T18:12:56;2.03;;;1.50;;
10491;SDS011;5293;51.464;-2.566;2022-09-17T18:15:22;2.27;;;2.00;;
10491;SDS011;5293;51.464;-2.566;2022-09-17T18:17:47;3.73;;;2.30;;
10491;SDS011;5293;51.464;-2.566;2022-09-17T18:20:15;5.57;;;2.30;;
10491;SDS011;5293;51.464;-2.566;2022-09-17T18:22:42;5.17;;;3.20;;
10491;SDS011;5293;51.464;-2.566;2022-09-17T18:25:08;7.67;;;3.80;;
10491;SDS011;5293;51.464;-2.566;2022-09-17T18:27:33;6.07;;;3.20;;
10491;SDS011;5293;51.464;-2.566;2022-09-17T18:29:59;7.37;;;5.43;;
10491;SDS011;5293;51.464;-2.566;2022-09-17T18:32:25;6.57;;;4.07;;
10491;SDS011;5293;51.464;-2.566;2022-09-17T18:34:50;7.33;;;4.37;;
10491;SDS011;5293;51.464;-2.566;2022-09-17T18:37:16;5.83;;;3.40;;
10491;SDS011;5293;51.464;-2.566;2022-09-17T18:39:42;5.40;;;3.60;;
10491;SDS011;5293;51.464;-2.566;2022-09-17T18:42:08;9.27;;;4.80;;
10491;SDS011;5293;51.464;-2.566;2022-09-17T18:44:33;10.67;;;5.57;;
10491;SDS011;5293;51.464;-2.566;2022-09-17T18:46:59;11.60;;;5.73;;
10491;SDS011;5293;51.464;-2.566;2022-09-17T18:49:25;12.80;;;6.27;;
10491;SDS011;5293;51.464;-2.566;2022-09-17T18:51:50;7.93;;;4.50;;